Portada
METAR-TAF:

METAR-TAF

Aeroports :

Grozni, Rússia

latitud: 43-23-18N, longitud: 045-41-59E, altitud: 167 m

Observació

L'informe es va fer fa 33 minuts, a les 23:30 UTC
Vent 2 kt del Nord-Est
Temperatura 3°C
Humitat 93%
Pressió 1005 hPa
Visibilitat 10 km o més
sense núvols per sota de 1500 mi sense presència de cumulonimbus.

METAR: URMG 272330Z 05001MPS CAVOK 03/02 Q1005 R26/090070 NOSIG RMK QFE739/0985

Hora: 03:03 (00:03 UTC)

Pronòstic

L'informe es va fer fa 1 hora i 3 minuts, a les 23:00 UTC
Pronòstic vàlid del 28 a les 00 UTC al 28 a les 09 UTC
Vent 6 kt del Est amb ràfegues de 16 kt
Visibilitat 10 km o més
Núvols disperses a una alçada de 3000 ft
Temporalment
l' 28 a les 00 UTC al 28 a les 06 UTC
Vent 2 kt amb direcció variable
Visibilitat: 3100 m
Cel ennuvolat a una alçada de 1100 ft
boirina

TAF: URMG 272300Z 2800/2809 10003G08MPS 9999 SCT030 TEMPO 2800/2806 VRB01MPS 3100 BR BKN011

Observacions i pronòstics meteorològics de més de 4000 aeroports (METAR i TAF).

Les estacions disponibles són els punts grocs i vermells al mapa.

Posi el ratolí al punt desitjat per veure el nom de l'estació.

Feu clic per veure les observacions i els pronòstics meteorològics.

Per canviar el mapa: feu clic els botons verds amb una creu de color negre per apropar; al botó verd amb un guió per allunyar la imatge; o en les fletxes verdes per a mapes adjacents.


METAR-TAF: